createdAt,value
2018-11-11T00:00:06.316Z,70.17
2018-11-11T00:01:06.273Z,69.55
2018-11-11T00:02:06.263Z,69.76
2018-11-11T00:03:06.231Z,69.96
2018-11-11T00:04:06.240Z,69.76
2018-11-11T00:05:06.223Z,69.65
2018-11-11T00:06:06.242Z,69.52
2018-11-11T00:07:06.194Z,69.52
2018-11-11T00:08:06.191Z,67.97
2018-11-11T00:09:06.173Z,68.18
2018-11-11T00:10:06.162Z,68.59
2018-11-11T00:11:06.179Z,69.04
2018-11-11T00:12:06.122Z,69.24
2018-11-11T00:13:06.112Z,69.04
2018-11-11T00:14:06.134Z,69.14
2018-11-11T00:15:06.108Z,69.24
2018-11-11T00:16:06.118Z,68.42
2018-11-11T00:17:06.296Z,68.42
2018-11-11T00:18:06.084Z,69.65
2018-11-11T00:19:06.063Z,69.96
2018-11-11T00:20:06.032Z,69.76
2018-11-11T00:21:06.054Z,70.00
2018-11-11T00:22:06.043Z,69.17
2018-11-11T00:23:06.034Z,69.07
2018-11-11T00:24:06.132Z,69.38
2018-11-11T00:25:05.992Z,70.00
2018-11-11T00:26:06.016Z,69.59
2018-11-11T00:27:06.007Z,68.14
2018-11-11T00:28:06.038Z,67.80
2018-11-11T00:29:05.939Z,67.90
2018-11-11T00:30:05.942Z,66.36
2018-11-11T00:31:05.936Z,68.11
2018-11-11T00:32:05.951Z,67.70
2018-11-11T00:33:05.899Z,67.29
2018-11-11T00:34:05.873Z,67.73
2018-11-11T00:35:05.869Z,67.93
2018-11-11T00:36:05.871Z,68.86
2018-11-11T00:37:05.897Z,68.24
2018-11-11T00:38:05.831Z,69.59
2018-11-11T00:39:05.832Z,70.00
2018-11-11T00:40:05.817Z,69.48
2018-11-11T00:41:05.812Z,69.69
2018-11-11T00:42:05.845Z,69.59
2018-11-11T00:43:05.781Z,68.66
2018-11-11T00:44:05.754Z,68.96
2018-11-11T00:45:05.753Z,68.24
2018-11-11T00:46:05.746Z,69.07
2018-11-11T00:47:05.773Z,69.59
2018-11-11T00:48:05.747Z,69.48
2018-11-11T00:49:05.711Z,69.82
2018-11-11T00:50:05.703Z,70.13
2018-11-11T00:51:05.703Z,69.41
2018-11-11T00:52:05.708Z,70.23
2018-11-11T00:53:05.677Z,70.44
2018-11-11T00:54:05.660Z,69.51
2018-11-11T00:55:05.661Z,69.41
2018-11-11T00:56:05.634Z,69.51
2018-11-11T00:57:05.655Z,69.10
2018-11-11T00:58:05.625Z,68.86
2018-11-11T00:59:05.601Z,68.76
2018-11-11T01:00:05.589Z,68.79
2018-11-11T01:01:05.637Z,69.51
2018-11-11T01:02:05.585Z,69.31
2018-11-11T01:03:05.605Z,68.17
2018-11-11T01:04:05.548Z,69.27
2018-11-11T01:05:05.532Z,68.90
2018-11-11T01:06:05.586Z,68.45
2018-11-11T01:07:05.544Z,68.38
2018-11-11T01:08:05.518Z,69.72
2018-11-11T01:09:05.682Z,69.59
2018-11-11T01:10:05.480Z,69.59
2018-11-11T01:11:05.519Z,70.03
2018-11-11T01:12:05.539Z,70.23
2018-11-11T01:13:05.457Z,70.23
2018-11-11T01:14:05.443Z,69.51
2018-11-11T01:15:05.432Z,70.54
2018-11-11T01:16:05.465Z,70.54
2018-11-11T01:17:05.532Z,70.75
2018-11-11T01:18:05.441Z,70.44
2018-11-11T01:19:05.403Z,70.00
2018-11-11T01:20:05.405Z,69.89
2018-11-11T01:21:05.401Z,69.89
2018-11-11T01:22:05.366Z,69.17
2018-11-11T01:23:05.340Z,69.07
2018-11-11T01:24:05.327Z,69.38
2018-11-11T01:25:05.329Z,69.14
2018-11-11T01:26:05.338Z,68.83
2018-11-11T01:27:05.297Z,69.45
2018-11-11T01:28:05.294Z,70.51
2018-11-11T01:29:05.274Z,69.65
2018-11-11T01:30:05.263Z,68.42
2018-11-11T01:31:05.316Z,68.59
2018-11-11T01:32:05.270Z,69.24
2018-11-11T01:33:05.242Z,69.24
2018-11-11T01:34:05.229Z,69.14
2018-11-11T01:35:05.208Z,68.73
2018-11-11T01:36:05.252Z,69.14
2018-11-11T01:37:05.228Z,67.46
2018-11-11T01:38:05.231Z,67.66
2018-11-11T01:39:05.186Z,68.62
2018-11-11T01:40:05.171Z,69.01
2018-11-11T01:41:05.136Z,69.42
2018-11-11T01:42:05.128Z,68.42
2018-11-11T01:43:05.185Z,69.14
2018-11-11T01:44:05.123Z,68.32
2018-11-11T01:45:05.113Z,68.62
2018-11-11T01:46:05.120Z,68.52
2018-11-11T01:47:05.090Z,66.94
2018-11-11T01:48:05.111Z,68.90
2018-11-11T01:49:05.079Z,68.59
2018-11-11T01:50:05.121Z,68.80
2018-11-11T01:51:05.038Z,69.11
2018-11-11T01:52:05.028Z,68.73
2018-11-11T01:53:05.042Z,68.42
2018-11-11T01:54:05.024Z,69.04
2018-11-11T01:55:05.045Z,67.66
2018-11-11T01:56:05.024Z,68.39
2018-11-11T01:57:04.980Z,68.90
2018-11-11T01:58:05.014Z,68.93
2018-11-11T01:59:04.981Z,69.24
2018-11-11T02:00:04.979Z,68.29
2018-11-11T02:01:04.950Z,68.29
2018-11-11T02:02:04.952Z,68.59
2018-11-11T02:03:04.918Z,68.49
2018-11-11T02:04:04.922Z,69.01
2018-11-11T02:05:04.927Z,69.42
2018-11-11T02:06:04.898Z,69.52
2018-11-11T02:07:04.872Z,69.04
2018-11-11T02:08:04.882Z,66.74
2018-11-11T02:09:04.869Z,66.94
2018-11-11T02:10:04.874Z,67.43
2018-11-11T02:11:04.846Z,67.02
2018-11-11T02:12:04.808Z,67.66
2018-11-11T02:13:04.837Z,66.53
2018-11-11T02:14:04.789Z,67.12
2018-11-11T02:15:04.785Z,68.08
2018-11-11T02:16:04.769Z,67.46
2018-11-11T02:17:04.776Z,68.49
2018-11-11T02:18:04.775Z,68.39
2018-11-11T02:19:04.740Z,68.80
2018-11-11T02:20:04.735Z,68.59
2018-11-11T02:21:04.806Z,69.11
2018-11-11T02:22:04.733Z,69.14
2018-11-11T02:23:04.769Z,69.42
2018-11-11T02:24:04.721Z,69.45
2018-11-11T02:25:04.689Z,69.21
2018-11-11T02:26:04.663Z,68.39
2018-11-11T02:27:04.672Z,70.04
2018-11-11T02:28:04.698Z,70.04
2018-11-11T02:29:04.662Z,69.11
2018-11-11T02:30:05.497Z,69.73
2018-11-11T02:31:04.601Z,70.17
2018-11-11T02:32:04.599Z,70.28
2018-11-11T02:33:04.619Z,69.96
2018-11-11T02:34:04.595Z,69.76
2018-11-11T02:35:04.571Z,69.62
2018-11-11T02:36:04.552Z,69.93
2018-11-11T02:37:04.596Z,69.73
2018-11-11T02:38:04.523Z,69.24
2018-11-11T02:39:04.524Z,70.07
2018-11-11T02:40:04.506Z,71.00
2018-11-11T02:41:04.511Z,69.65
2018-11-11T02:42:04.535Z,68.08
2018-11-11T02:43:04.490Z,68.29
2018-11-11T02:44:04.472Z,69.11
2018-11-11T02:45:04.450Z,69.62
2018-11-11T02:46:04.446Z,69.52
2018-11-11T02:47:04.468Z,69.73
2018-11-11T02:48:04.455Z,70.28
2018-11-11T02:49:04.423Z,68.93
2018-11-11T02:50:04.408Z,70.28
2018-11-11T02:51:04.448Z,69.31
2018-11-11T02:52:04.391Z,69.14
2018-11-11T02:53:04.370Z,70.14
2018-11-11T02:54:04.362Z,70.68
2018-11-11T02:55:04.352Z,71.00
2018-11-11T02:56:04.404Z,71.10
2018-11-11T02:57:04.340Z,71.00
2018-11-11T02:58:04.307Z,70.79
2018-11-11T02:59:04.296Z,71.61
2018-11-11T03:00:04.304Z,71.00
2018-11-11T03:01:04.320Z,71.20
2018-11-11T03:02:04.313Z,70.92
2018-11-11T03:03:04.264Z,71.23
2018-11-11T03:04:04.239Z,70.82
2018-11-11T03:05:04.231Z,70.37
2018-11-11T03:06:04.273Z,70.28
2018-11-11T03:07:04.232Z,71.10
2018-11-11T03:08:04.209Z,70.58
2018-11-11T03:09:04.223Z,71.20
2018-11-11T03:10:04.170Z,70.58
2018-11-11T03:11:04.209Z,69.96
2018-11-11T03:12:04.193Z,70.07
2018-11-11T03:13:04.151Z,69.96
2018-11-11T03:14:04.134Z,69.55
2018-11-11T03:15:04.148Z,68.80
2018-11-11T03:16:04.139Z,70.04
2018-11-11T03:17:04.132Z,70.89
2018-11-11T03:18:04.940Z,71.00
2018-11-11T03:19:04.128Z,70.58
2018-11-11T03:20:04.117Z,71.10
2018-11-11T03:21:04.091Z,71.10
2018-11-11T03:22:04.058Z,71.20
2018-11-11T03:23:04.039Z,71.41
2018-11-11T03:24:04.023Z,71.44
2018-11-11T03:25:04.050Z,71.55
2018-11-11T03:26:04.921Z,71.41
2018-11-11T03:27:05.018Z,71.55
2018-11-11T03:28:04.013Z,71.64
2018-11-11T03:29:04.049Z,71.92
2018-11-11T03:30:03.984Z,71.72
2018-11-11T03:31:03.983Z,71.75
2018-11-11T03:32:03.974Z,71.13
2018-11-11T03:33:04.009Z,71.61
2018-11-11T03:34:03.952Z,72.16
2018-11-11T03:35:03.912Z,71.72
2018-11-11T03:36:03.945Z,72.54
2018-11-11T03:37:03.878Z,71.64
2018-11-11T03:38:03.938Z,72.06
2018-11-11T03:39:03.913Z,71.85
2018-11-11T03:40:03.857Z,72.06
2018-11-11T03:41:03.851Z,72.27
2018-11-11T03:42:03.859Z,71.82
2018-11-11T03:43:03.873Z,72.06
2018-11-11T03:44:03.844Z,72.16
2018-11-11T03:45:03.955Z,72.13
2018-11-11T03:46:03.793Z,72.47
2018-11-11T03:47:04.419Z,71.92
2018-11-11T03:48:03.805Z,72.03
2018-11-11T03:49:03.898Z,72.33
2018-11-11T03:50:03.882Z,71.85
2018-11-11T03:51:03.728Z,72.33
2018-11-11T03:52:03.738Z,71.75
2018-11-11T03:53:03.748Z,72.37
2018-11-11T03:54:03.914Z,71.34
2018-11-11T03:55:03.699Z,69.31
2018-11-11T03:56:03.820Z,70.58
2018-11-11T03:57:03.684Z,71.30
2018-11-11T03:58:03.694Z,71.75
2018-11-11T03:59:04.413Z,71.85
2018-11-11T04:00:03.683Z,72.47
2018-11-11T04:01:03.654Z,71.44
2018-11-11T04:02:03.646Z,71.85
2018-11-11T04:03:03.605Z,71.64
2018-11-11T04:04:03.872Z,71.99
2018-11-11T04:05:03.587Z,72.09
2018-11-11T04:06:03.615Z,71.85
2018-11-11T04:07:03.576Z,71.23
2018-11-11T04:08:03.556Z,71.34
2018-11-11T04:09:03.594Z,71.85
2018-11-11T04:10:03.567Z,72.37
2018-11-11T04:11:03.546Z,70.92
2018-11-11T04:12:03.551Z,71.85
2018-11-11T04:13:03.501Z,70.82
2018-11-11T04:14:03.486Z,70.92
2018-11-11T04:15:03.518Z,71.44
2018-11-11T04:16:03.488Z,71.34
2018-11-11T04:17:03.474Z,70.89
2018-11-11T04:18:03.512Z,71.64
2018-11-11T04:19:03.470Z,70.82
2018-11-11T04:20:03.412Z,71.23
2018-11-11T04:21:03.399Z,71.23
2018-11-11T04:22:03.434Z,71.55
2018-11-11T04:23:03.431Z,71.55
2018-11-11T04:24:03.394Z,71.55
2018-11-11T04:25:03.384Z,71.55
2018-11-11T04:26:03.390Z,70.51
2018-11-11T04:27:03.497Z,70.92
2018-11-11T04:28:03.374Z,71.00
2018-11-11T04:29:03.556Z,71.34
2018-11-11T04:30:03.345Z,70.92
2018-11-11T04:31:03.316Z,71.34
2018-11-11T04:32:03.322Z,71.13
2018-11-11T04:33:03.305Z,71.95
2018-11-11T04:34:03.296Z,71.95
2018-11-11T04:35:03.342Z,71.89
2018-11-11T04:36:03.368Z,70.41
2018-11-11T04:37:03.249Z,71.64
2018-11-11T04:38:03.248Z,71.75
2018-11-11T04:39:03.253Z,71.37
2018-11-11T04:40:03.244Z,71.89
2018-11-11T04:41:03.202Z,71.78
2018-11-11T04:42:03.172Z,71.16
2018-11-11T04:43:03.177Z,71.26
2018-11-11T04:44:03.154Z,71.37
2018-11-11T04:45:03.166Z,71.16
2018-11-11T04:46:03.190Z,72.23
2018-11-11T04:47:03.130Z,72.13
2018-11-11T04:48:03.115Z,71.81
2018-11-11T04:49:03.170Z,72.13
2018-11-11T04:50:03.103Z,72.02
2018-11-11T04:51:03.089Z,72.23
2018-11-11T04:52:03.097Z,72.61
2018-11-11T04:53:03.071Z,72.13
2018-11-11T04:54:03.054Z,71.71
2018-11-11T04:55:03.456Z,72.23
2018-11-11T04:56:03.066Z,72.02
2018-11-11T04:57:03.015Z,72.74
2018-11-11T04:58:03.047Z,73.26
2018-11-11T04:59:03.026Z,73.36
2018-11-11T05:00:02.982Z,73.26
2018-11-11T05:01:02.997Z,73.26
2018-11-11T05:02:03.004Z,73.26
2018-11-11T05:03:03.017Z,73.77
2018-11-11T05:04:02.946Z,73.68
2018-11-11T05:05:02.928Z,73.36
2018-11-11T05:06:02.917Z,73.88
2018-11-11T05:07:02.923Z,75.32
2018-11-11T05:08:02.948Z,75.26
2018-11-11T05:09:02.912Z,73.19
2018-11-11T05:10:02.890Z,73.26
2018-11-11T05:11:02.910Z,73.36
2018-11-11T05:12:02.870Z,73.29
2018-11-11T05:13:02.871Z,73.29
2018-11-11T05:14:24.252Z,73.71
2018-11-11T05:15:03.820Z,73.29
2018-11-11T05:16:02.822Z,73.39
2018-11-11T05:17:02.830Z,73.71
2018-11-11T05:18:02.849Z,74.12
2018-11-11T05:19:02.785Z,74.12
2018-11-11T05:20:02.797Z,73.85
2018-11-11T05:21:02.765Z,74.53
2018-11-11T05:22:02.837Z,74.33
2018-11-11T05:23:02.774Z,74.26
2018-11-11T05:24:02.746Z,74.33
2018-11-11T05:25:02.734Z,74.26
2018-11-11T05:26:03.445Z,74.46
2018-11-11T05:27:02.700Z,72.99
2018-11-11T05:28:02.766Z,73.36
2018-11-11T05:29:02.693Z,72.99
2018-11-11T05:30:02.685Z,73.39
2018-11-11T05:31:02.824Z,73.81
2018-11-11T05:32:02.664Z,73.60
2018-11-11T05:33:02.678Z,74.02
2018-11-11T05:34:02.618Z,74.02
2018-11-11T05:35:02.620Z,73.29
2018-11-11T05:36:02.655Z,73.36
2018-11-11T05:37:02.585Z,73.57
2018-11-11T05:38:02.583Z,73.77
2018-11-11T05:39:02.575Z,73.57
2018-11-11T05:40:02.552Z,73.47
2018-11-11T05:41:02.569Z,73.68
2018-11-11T05:42:02.561Z,73.68
2018-11-11T05:43:02.532Z,73.57
2018-11-11T05:44:02.533Z,73.77
2018-11-11T05:45:02.518Z,73.77
2018-11-11T05:46:02.528Z,73.77
2018-11-11T05:47:02.494Z,73.98
2018-11-11T05:48:02.471Z,73.57
2018-11-11T05:49:02.479Z,73.88
2018-11-11T05:50:02.460Z,74.43
2018-11-11T05:51:02.483Z,75.36
2018-11-11T05:52:02.497Z,75.32
2018-11-11T05:53:02.404Z,75.22
2018-11-11T05:54:02.399Z,75.12
2018-11-11T05:55:02.445Z,73.57
2018-11-11T05:56:02.397Z,73.47
2018-11-11T05:57:02.409Z,72.23
2018-11-11T05:58:02.383Z,72.74
2018-11-11T05:59:02.352Z,73.36
2018-11-11T06:00:02.517Z,73.77
2018-11-11T06:01:02.326Z,73.26
2018-11-11T06:02:02.370Z,73.36
2018-11-11T06:03:02.332Z,73.16
2018-11-11T06:04:02.336Z,73.36
2018-11-11T06:05:02.365Z,73.77
2018-11-11T06:06:02.273Z,73.88
2018-11-11T06:07:02.451Z,73.26
2018-11-11T06:08:04.119Z,73.05
2018-11-11T06:09:02.265Z,73.02
2018-11-11T06:10:02.241Z,73.36
2018-11-11T06:11:02.240Z,73.05
2018-11-11T06:12:02.283Z,71.99
2018-11-11T06:13:02.362Z,72.19
2018-11-11T06:14:02.227Z,72.74
2018-11-11T06:15:02.248Z,72.50
2018-11-11T06:16:02.165Z,72.09
2018-11-11T06:17:02.153Z,71.68
2018-11-11T06:18:02.170Z,72.09
2018-11-11T06:19:02.306Z,71.78
2018-11-11T06:20:02.176Z,71.89
2018-11-11T06:21:02.122Z,71.99
2018-11-11T06:22:02.096Z,71.78
2018-11-11T06:23:02.096Z,71.44
2018-11-11T06:24:02.081Z,71.03
2018-11-11T06:25:02.112Z,72.16
2018-11-11T06:26:02.084Z,71.34
2018-11-11T06:27:02.086Z,70.86
2018-11-11T06:28:02.044Z,70.86
2018-11-11T06:29:02.153Z,71.06
2018-11-11T06:30:02.092Z,71.23
2018-11-11T06:31:02.028Z,71.75
2018-11-11T06:32:02.077Z,71.85
2018-11-11T06:33:02.001Z,72.30
2018-11-11T06:34:02.030Z,72.27
2018-11-11T06:35:01.995Z,71.64
2018-11-11T06:36:01.983Z,71.34
2018-11-11T06:37:01.961Z,70.00
2018-11-11T06:38:02.462Z,70.79
2018-11-11T06:39:01.917Z,70.58
2018-11-11T06:40:01.917Z,71.00
2018-11-11T06:41:01.963Z,71.85
2018-11-11T06:42:01.929Z,71.61
2018-11-11T06:43:01.883Z,71.30
2018-11-11T06:44:01.859Z,69.86
2018-11-11T06:45:01.875Z,70.28
2018-11-11T06:46:01.868Z,70.37
2018-11-11T06:47:02.429Z,70.79
2018-11-11T06:48:01.889Z,70.89
2018-11-11T06:49:01.821Z,71.00
2018-11-11T06:50:02.418Z,70.58
2018-11-11T06:51:01.797Z,70.37
2018-11-11T06:52:01.782Z,70.58
2018-11-11T06:53:01.777Z,70.79
2018-11-11T06:54:01.763Z,71.51
2018-11-11T06:55:01.785Z,70.89
2018-11-11T06:56:01.722Z,71.72
2018-11-11T06:57:01.716Z,71.92
2018-11-11T06:58:01.780Z,71.51
2018-11-11T06:59:01.705Z,70.55
2018-11-11T07:00:01.779Z,70.24
2018-11-11T07:01:01.711Z,70.45
2018-11-11T07:02:01.670Z,70.58
2018-11-11T07:03:01.666Z,71.30
2018-11-11T07:04:01.678Z,72.03
2018-11-11T07:05:01.754Z,71.34
2018-11-11T07:06:01.649Z,70.82
2018-11-11T07:07:02.457Z,71.34
2018-11-11T07:08:01.604Z,71.92
2018-11-11T07:09:01.614Z,70.68
2018-11-11T07:10:01.609Z,71.30
2018-11-11T07:11:01.626Z,70.68
2018-11-11T07:12:01.571Z,70.17
2018-11-11T07:13:01.538Z,70.14
2018-11-11T07:14:01.609Z,70.76
2018-11-11T07:15:01.568Z,70.55
2018-11-11T07:16:01.511Z,70.86
2018-11-11T07:17:01.518Z,71.17
2018-11-11T07:18:01.516Z,71.58
2018-11-11T07:19:01.501Z,69.62
2018-11-11T07:20:01.592Z,70.21
2018-11-11T07:21:01.501Z,69.70
2018-11-11T07:22:01.456Z,69.38
2018-11-11T07:23:01.468Z,68.25
2018-11-11T07:24:01.541Z,67.22
2018-11-11T07:25:01.479Z,67.74
2018-11-11T07:26:01.439Z,68.32
2018-11-11T07:27:01.412Z,67.50
2018-11-11T07:28:01.391Z,66.67
2018-11-11T07:29:01.390Z,67.81
2018-11-11T07:30:01.419Z,68.74
2018-11-11T07:31:01.376Z,67.94
2018-11-11T07:32:02.888Z,67.50
2018-11-11T07:33:01.329Z,66.16
2018-11-11T07:34:01.318Z,67.40
2018-11-11T07:35:01.338Z,65.83
2018-11-11T07:36:01.450Z,66.64
2018-11-11T07:37:01.285Z,66.64
2018-11-11T07:38:01.281Z,66.85
2018-11-11T07:39:01.273Z,66.13
2018-11-11T07:40:01.310Z,64.97
2018-11-11T07:41:01.244Z,66.75
2018-11-11T07:42:01.226Z,67.44
2018-11-11T07:43:01.210Z,66.10
2018-11-11T07:44:01.262Z,67.68
2018-11-11T07:45:01.244Z,67.06
2018-11-11T07:46:01.400Z,65.69
2018-11-11T07:47:01.181Z,65.59
2018-11-11T07:48:01.229Z,66.10
2018-11-11T07:49:01.157Z,66.51
2018-11-11T07:50:01.189Z,66.31
2018-11-11T07:51:01.143Z,66.28
2018-11-11T07:52:01.243Z,65.14
2018-11-11T07:53:01.104Z,64.87
2018-11-11T07:54:01.103Z,65.14
2018-11-11T07:55:01.444Z,65.86
2018-11-11T07:56:01.162Z,64.63
2018-11-11T07:57:01.114Z,63.91
2018-11-11T07:58:01.152Z,63.40
2018-11-11T07:59:01.051Z,63.09
2018-11-11T08:00:01.031Z,62.88
2018-11-11T08:01:01.119Z,62.37
2018-11-11T08:02:01.159Z,63.29
2018-11-11T08:03:01.091Z,62.45
2018-11-11T08:04:01.016Z,61.72
2018-11-11T08:05:02.076Z,61.93
2018-11-11T08:06:00.960Z,61.83
2018-11-11T08:07:01.399Z,63.37
2018-11-11T08:08:01.004Z,63.17
2018-11-11T08:09:01.074Z,63.57
2018-11-11T08:10:00.944Z,63.17
2018-11-11T08:11:00.991Z,63.06
2018-11-11T08:12:00.988Z,63.24
2018-11-11T08:13:00.903Z,65.09
2018-11-11T08:14:00.890Z,64.81
2018-11-11T08:15:00.924Z,64.16
2018-11-11T08:16:01.070Z,64.29
2018-11-11T08:17:01.084Z,63.34
2018-11-11T08:18:01.011Z,63.06
2018-11-11T08:19:01.095Z,62.65
2018-11-11T08:20:00.873Z,64.81
2018-11-11T08:21:00.852Z,64.26
2018-11-11T08:22:00.847Z,64.70
2018-11-11T08:23:00.797Z,65.22
2018-11-11T08:24:00.777Z,64.50
2018-11-11T08:25:00.775Z,64.26
2018-11-11T08:26:00.767Z,63.24
2018-11-11T08:27:00.795Z,64.37
2018-11-11T08:28:00.748Z,64.26
2018-11-11T08:29:00.724Z,63.96
2018-11-11T08:30:00.717Z,64.06
2018-11-11T08:31:00.713Z,63.75
2018-11-11T08:32:00.729Z,64.67
2018-11-11T08:33:00.683Z,64.26
2018-11-11T08:34:00.676Z,63.65
2018-11-11T08:35:01.469Z,64.40
2018-11-11T08:36:00.673Z,64.67
2018-11-11T08:37:00.757Z,64.60
2018-11-11T08:38:01.359Z,64.40
2018-11-11T08:39:00.614Z,65.32
2018-11-11T08:40:00.668Z,65.73
2018-11-11T08:41:00.890Z,64.16
2018-11-11T08:42:00.618Z,63.34
2018-11-11T08:43:00.675Z,62.31
2018-11-11T08:44:00.577Z,61.60
2018-11-11T08:45:00.585Z,61.60
2018-11-11T08:46:00.549Z,61.90
2018-11-11T08:47:01.400Z,63.44
2018-11-11T08:48:00.572Z,62.93
2018-11-11T08:49:00.507Z,62.31
2018-11-11T08:50:00.542Z,63.13
2018-11-11T08:51:00.495Z,62.18
2018-11-11T08:52:00.467Z,62.49
2018-11-11T08:53:00.496Z,62.90
2018-11-11T08:54:00.509Z,62.08
2018-11-11T08:55:00.552Z,62.18
2018-11-11T08:56:00.452Z,61.77
2018-11-11T08:57:00.431Z,62.29
2018-11-11T08:58:00.431Z,61.36
2018-11-11T08:59:00.443Z,61.57
2018-11-11T09:00:00.399Z,61.95
2018-11-11T09:01:00.390Z,61.23
2018-11-11T09:02:00.362Z,61.44
2018-11-11T09:03:00.387Z,62.46
2018-11-11T09:04:00.391Z,63.28
2018-11-11T09:05:00.498Z,63.10
2018-11-11T09:06:00.330Z,64.23
2018-11-11T09:07:00.375Z,63.10
2018-11-11T09:08:00.314Z,62.66
2018-11-11T09:09:00.320Z,63.28
2018-11-11T09:10:00.280Z,61.71
2018-11-11T09:11:00.309Z,60.72
2018-11-11T09:12:00.254Z,60.00
2018-11-11T09:13:00.251Z,60.07
2018-11-11T09:14:24.528Z,60.28
2018-11-11T09:15:01.251Z,59.36
2018-11-11T09:16:14.425Z,60.28
2018-11-11T09:17:08.961Z,59.87
2018-11-11T09:18:00.202Z,60.17
2018-11-11T09:19:00.213Z,61.51
2018-11-11T09:20:00.245Z,61.51
2018-11-11T09:21:01.340Z,62.33
2018-11-11T09:22:00.209Z,62.54
2018-11-11T09:23:00.137Z,63.35
2018-11-11T09:24:00.910Z,63.07
2018-11-11T09:25:00.153Z,64.00
2018-11-11T09:26:00.173Z,64.10
2018-11-11T09:27:00.132Z,64.51
2018-11-11T09:28:00.113Z,64.20
2018-11-11T09:29:00.180Z,62.87
2018-11-11T09:30:00.085Z,64.20
2018-11-11T09:31:00.258Z,64.31
2018-11-11T09:32:00.062Z,64.31
2018-11-11T09:33:00.077Z,63.59
2018-11-11T09:34:00.043Z,63.79
2018-11-11T09:35:00.073Z,63.25
2018-11-11T09:36:00.059Z,61.95
2018-11-11T09:37:00.036Z,62.26
2018-11-11T09:38:00.065Z,63.25
2018-11-11T09:39:00.040Z,62.15
2018-11-11T09:39:59.997Z,61.20
2018-11-11T09:41:00.007Z,60.17
2018-11-11T09:42:00.001Z,60.07
2018-11-11T09:42:59.987Z,59.46
2018-11-11T09:43:59.975Z,60.07
2018-11-11T09:44:59.928Z,62.63
2018-11-11T09:45:59.906Z,59.74
2018-11-11T09:46:59.991Z,59.43
2018-11-11T09:47:59.977Z,61.69
2018-11-11T09:48:59.951Z,60.15
2018-11-11T09:49:59.880Z,60.56
2018-11-11T09:51:00.010Z,60.56
2018-11-11T09:51:59.913Z,60.66
2018-11-11T09:52:59.864Z,59.20
2018-11-11T09:53:59.885Z,59.30
2018-11-11T09:54:59.848Z,59.92
2018-11-11T09:55:59.841Z,60.12
2018-11-11T09:56:59.863Z,59.92
2018-11-11T09:57:59.800Z,60.33
2018-11-11T09:58:59.790Z,60.33
2018-11-11T09:59:59.861Z,59.99
2018-11-11T10:00:59.829Z,59.61
2018-11-11T10:02:00.337Z,59.71
2018-11-11T10:02:59.737Z,58.58
2018-11-11T10:03:59.743Z,60.12
2018-11-11T10:04:59.789Z,59.92
2018-11-11T10:05:59.723Z,59.92
2018-11-11T10:06:59.786Z,60.19
2018-11-11T10:07:59.716Z,60.12
2018-11-11T10:08:59.679Z,60.30
2018-11-11T10:10:00.438Z,58.56
2018-11-11T10:10:59.668Z,60.42
2018-11-11T10:11:59.698Z,59.78
2018-11-11T10:12:59.673Z,59.17
2018-11-11T10:13:59.589Z,60.50
2018-11-11T10:14:59.594Z,59.78
2018-11-11T10:15:59.581Z,60.60
2018-11-11T10:16:59.596Z,59.07
2018-11-11T10:17:59.631Z,59.78
2018-11-11T10:18:59.577Z,59.89
2018-11-11T10:19:59.537Z,59.58
2018-11-11T10:20:59.620Z,60.06
2018-11-11T10:21:59.527Z,59.07
2018-11-11T10:22:59.608Z,58.22
2018-11-11T10:24:00.502Z,58.43
2018-11-11T10:24:59.545Z,58.45
2018-11-11T10:25:59.510Z,59.14
2018-11-11T10:26:59.560Z,58.63
2018-11-11T10:27:59.483Z,58.94
2018-11-11T10:28:59.499Z,58.63
2018-11-11T10:29:59.444Z,58.73
2018-11-11T10:30:59.510Z,59.22
2018-11-11T10:31:59.632Z,59.94
2018-11-11T10:32:59.490Z,59.73
2018-11-11T10:34:00.024Z,59.63
2018-11-11T10:34:59.610Z,58.70
2018-11-11T10:35:59.597Z,58.70
2018-11-11T10:36:59.581Z,59.01
2018-11-11T10:37:59.369Z,59.22
2018-11-11T10:38:59.450Z,58.81
2018-11-11T10:39:59.359Z,59.53
2018-11-11T10:41:00.137Z,60.83
2018-11-11T10:41:59.501Z,58.91
2018-11-11T10:42:59.365Z,59.32
2018-11-11T10:44:00.401Z,59.94
2018-11-11T10:44:59.924Z,59.94
2018-11-11T10:45:59.342Z,58.98
2018-11-11T10:46:59.421Z,59.32
2018-11-11T10:48:01.420Z,59.50
2018-11-11T10:48:59.919Z,58.81
2018-11-11T10:49:59.390Z,59.32
2018-11-11T10:50:59.280Z,59.12
2018-11-11T10:51:59.487Z,59.42
2018-11-11T10:52:59.248Z,57.58
2018-11-11T10:53:59.489Z,58.50
2018-11-11T10:55:00.094Z,57.89
2018-11-11T10:55:59.158Z,58.68
2018-11-11T10:56:59.173Z,59.50
2018-11-11T10:57:59.214Z,59.19
2018-11-11T10:58:59.544Z,58.27
2018-11-11T10:59:59.473Z,59.09
2018-11-11T11:00:59.351Z,58.75
2018-11-11T11:01:59.171Z,59.06
2018-11-11T11:02:59.158Z,57.84
2018-11-11T11:03:59.050Z,56.63
2018-11-11T11:04:59.027Z,57.12
2018-11-11T11:06:00.058Z,57.32
2018-11-11T11:06:59.024Z,57.43
2018-11-11T11:07:59.050Z,58.25
2018-11-11T11:08:59.562Z,58.52
2018-11-11T11:10:00.149Z,57.09
2018-11-11T11:10:59.017Z,57.50
2018-11-11T11:11:59.053Z,57.29
2018-11-11T11:12:58.984Z,55.58
2018-11-11T11:13:59.052Z,57.22
2018-11-11T11:14:58.953Z,58.32
2018-11-11T11:15:58.918Z,58.01
2018-11-11T11:16:58.945Z,58.42
2018-11-11T11:17:59.018Z,58.50
2018-11-11T11:18:58.898Z,57.50
2018-11-11T11:19:58.876Z,57.27
2018-11-11T11:20:58.882Z,56.68
2018-11-11T11:21:58.967Z,56.79
2018-11-11T11:22:58.939Z,57.20
2018-11-11T11:23:59.721Z,55.05
2018-11-11T11:24:58.965Z,56.07
2018-11-11T11:25:58.854Z,58.32
2018-11-11T11:26:59.436Z,55.87
2018-11-11T11:27:58.852Z,56.79
2018-11-11T11:28:58.805Z,57.20
2018-11-11T11:29:58.761Z,56.79
2018-11-11T11:30:58.780Z,57.40
2018-11-11T11:31:58.826Z,57.07
2018-11-11T11:32:58.718Z,56.99
2018-11-11T11:33:58.761Z,56.89
2018-11-11T11:34:58.695Z,57.50
2018-11-11T11:35:58.742Z,57.40
2018-11-11T11:36:58.686Z,58.32
2018-11-11T11:37:58.725Z,57.48
2018-11-11T11:38:58.686Z,55.61
2018-11-11T11:39:58.660Z,56.53
2018-11-11T11:40:58.683Z,55.91
2018-11-11T11:41:58.636Z,57.04
2018-11-11T11:42:58.625Z,57.14
2018-11-11T11:43:58.670Z,56.23
2018-11-11T11:44:58.589Z,56.84
2018-11-11T11:45:58.627Z,55.07
2018-11-11T11:46:58.569Z,55.28
2018-11-11T11:47:58.564Z,55.02
2018-11-11T11:48:58.552Z,55.18
2018-11-11T11:49:58.547Z,55.38
2018-11-11T11:50:59.431Z,53.11
2018-11-11T11:51:58.569Z,54.16
2018-11-11T11:52:58.586Z,55.30
2018-11-11T11:53:58.501Z,55.30
2018-11-11T11:54:58.512Z,55.69
2018-11-11T11:55:58.475Z,54.18
2018-11-11T11:56:58.520Z,55.30
2018-11-11T11:57:58.517Z,55.71
2018-11-11T11:58:58.435Z,56.02
2018-11-11T11:59:58.444Z,56.63
2018-11-11T12:00:58.414Z,55.15
2018-11-11T12:01:59.506Z,56.15
2018-11-11T12:02:58.405Z,55.22
2018-11-11T12:03:58.382Z,55.15
2018-11-11T12:04:58.417Z,54.85
2018-11-11T12:05:58.373Z,54.94
2018-11-11T12:06:58.373Z,53.01
2018-11-11T12:07:58.383Z,54.44
2018-11-11T12:08:58.360Z,52.83
2018-11-11T12:09:58.394Z,53.04
2018-11-11T12:10:58.303Z,52.22
2018-11-11T12:11:58.330Z,52.96
2018-11-11T12:12:58.356Z,53.88
2018-11-11T12:13:58.312Z,54.28
2018-11-11T12:14:58.294Z,53.88
2018-11-11T12:15:58.289Z,52.96
2018-11-11T12:16:58.927Z,53.06
2018-11-11T12:17:58.247Z,52.37
2018-11-11T12:18:58.253Z,52.98
2018-11-11T12:19:58.245Z,51.76
2018-11-11T12:20:58.201Z,51.86
2018-11-11T12:21:58.209Z,52.37
2018-11-11T12:22:58.921Z,52.27
2018-11-11T12:23:58.945Z,52.68
2018-11-11T12:24:58.197Z,52.98
2018-11-11T12:25:58.148Z,54.41
2018-11-11T12:26:58.129Z,53.09
2018-11-11T12:27:58.121Z,53.09
2018-11-11T12:28:58.105Z,53.06
2018-11-11T12:29:58.175Z,51.84
2018-11-11T12:30:58.498Z,52.45
2018-11-11T12:31:58.082Z,49.68
2018-11-11T12:32:58.067Z,46.98
2018-11-11T12:33:58.081Z,50.04
2018-11-11T12:34:58.099Z,48.74
2018-11-11T12:35:58.059Z,49.37
2018-11-11T12:36:58.432Z,49.88
2018-11-11T12:37:58.025Z,51.00
2018-11-11T12:38:58.043Z,50.21
2018-11-11T12:39:58.284Z,50.39
2018-11-11T12:40:57.983Z,49.94
2018-11-11T12:41:58.059Z,48.43
2018-11-11T12:42:57.980Z,48.41
2018-11-11T12:43:57.959Z,48.03
2018-11-11T12:44:58.145Z,48.61
2018-11-11T12:45:57.944Z,47.80
2018-11-11T12:46:58.021Z,46.93
2018-11-11T12:47:57.916Z,48.46
2018-11-11T12:48:58.053Z,48.56
2018-11-11T12:49:57.887Z,47.95
2018-11-11T12:50:57.877Z,47.97
2018-11-11T12:51:57.915Z,48.18